Airfield :
LOGIN :

Register | Disclaimer

   EN    FR    IT 

 










Legend :    VFR   Marginal VFR   IFR   Intensive IFR   Very Intensive IFR
Visi :
Ceiling :
>= 8 km
>= 3000ft
5 to 8 km
1000 to 3000 ft
1500m to 5 km
500 to 1000 ft
800 to 1500m
200 to 500 ft
< 800m
< 200 ft
Symbols :   Thunderstorms  Fog  Heavy snow  Heavy precipitations  Wind > 20 kt
SIGMETs :     Misc.  Thunderstorms  Icing  Turbulence  Mountain Waves  Volcanic Ashes







- Airport Elevation : 53 ft
- IATA code : HAM


EDDH - Hamburg

CURRENT METAR :
  • 190220Z 24012KT 210V270 9999 -SHRA FEW015CB BKN035 04/03 Q1006 TEMPO 29015G35KT SHRAGS BKN013

EXPIRED METARs :
  • 190150Z 25011KT 9999 -SHRA FEW011CB BKN030 04/03 Q1006 TEMPO 27015G30KT SHRA
  • 190120Z 24012KT 210V270 9999 -SHRA FEW013CB BKN030 04/03 Q1006 TEMPO 27015G30KT SHRA
  • 190050Z 23011KT 9999 -SHRA FEW013CB BKN025 04/03 Q1007 TEMPO 27015G30KT SHRA
  • 190020Z 23012KT 9999 -SHRA FEW015 BKN030 04/03 Q1007 TEMPO 27015G30KT SHRA
  • 182350Z 23014KT 9999 -SHRA BKN035 04/03 Q1007 TEMPO 27015G30KT SHRA

TAF TAF EDDH
Valid from the 19 at 00:00 until the 20 at 06:00 UTC


182300Z 1900/2006 23010G20KT 9999 FEW012 SCT030
TEMPO 1900/1915 29020G35KT SHRA SCT008 BKN015CB
PROB30
TEMPO 1903/1907 4000 TSRAGS BKN009
BECMG 1908/1910 29015G30KT
BECMG 1915/1917 29009KT
TEMPO 1921/2006 24004KT
No reported NOTAMs for that airfield.



MET'MAP, your aeronautical weather chart ! - Copyright ORBIFLY December 2007 - Disclaimer

ORBIFLY MET'MAP TEAM :

Programming & Development : Alexandra Zaïnal
Concept & Development : Baudouin d'Aumeries
Co-Development & Prog : Marc-Olivier Méhu
Technical & hardware support : Manuel Goepfert

Contact : metmap@orbifly.com




SOURCES & CREDITS :

   NOAA